createdAt,value
2018-09-15T00:00:28.916Z,99606.56
2018-09-15T00:01:00.063Z,99611.75
2018-09-15T00:01:31.174Z,99614.81
2018-09-15T00:02:02.312Z,99604.27
2018-09-15T00:02:33.414Z,99611.75
2018-09-15T00:03:04.522Z,99609.26
2018-09-15T00:03:35.636Z,99612.46
2018-09-15T00:04:06.772Z,99613.88
2018-09-15T00:04:37.929Z,99616.95
2018-09-15T00:05:09.031Z,99607.91
2018-09-15T00:05:40.161Z,99616.35
2018-09-15T00:06:11.312Z,99612.09
2018-09-15T00:06:42.421Z,99620.84
2018-09-15T00:07:13.530Z,99611.41
2018-09-15T00:07:44.657Z,99612.27
2018-09-15T00:08:15.769Z,99610.56
2018-09-15T00:08:46.892Z,99615.14
2018-09-15T00:09:18.028Z,99614.27
2018-09-15T00:09:49.193Z,99614.36
2018-09-15T00:10:20.324Z,99613.97
2018-09-15T00:10:51.462Z,99611.81
2018-09-15T00:11:22.632Z,99613.52
2018-09-15T00:11:53.771Z,99612.26
2018-09-15T00:12:24.911Z,99610.19
2018-09-15T00:12:56.028Z,99610.19
2018-09-15T00:13:27.148Z,99607.38
2018-09-15T00:13:58.266Z,99606.55
2018-09-15T00:14:29.411Z,99613.97
2018-09-15T00:15:00.537Z,99609.09
2018-09-15T00:15:31.655Z,99613.58
2018-09-15T00:16:02.774Z,99606.16
2018-09-15T00:16:33.938Z,99607.86
2018-09-15T00:17:05.058Z,99606.55
2018-09-15T00:17:36.167Z,99607.38
2018-09-15T00:18:07.281Z,99610.94
2018-09-15T00:18:38.397Z,99606.55
2018-09-15T00:19:09.520Z,99606.99
2018-09-15T00:19:40.664Z,99609.96
2018-09-15T00:20:11.847Z,99610.31
2018-09-15T00:20:42.956Z,99607.63
2018-09-15T00:21:14.124Z,99606.37
2018-09-15T00:21:45.236Z,99613.83
2018-09-15T00:22:16.360Z,99606.99
2018-09-15T00:22:47.492Z,99612.73
2018-09-15T00:23:18.613Z,99611.81
2018-09-15T00:23:49.718Z,99611.42
2018-09-15T00:24:20.844Z,99614.54
2018-09-15T00:24:51.976Z,99611.42
2018-09-15T00:25:23.124Z,99613.22
2018-09-15T00:25:54.245Z,99616.21
2018-09-15T00:26:25.407Z,99610.80
2018-09-15T00:26:56.552Z,99609.88
2018-09-15T00:27:27.689Z,99612.03
2018-09-15T00:27:58.796Z,99611.94
2018-09-15T00:28:29.943Z,99610.27
2018-09-15T00:29:01.062Z,99611.02
2018-09-15T00:29:32.185Z,99608.38
2018-09-15T00:30:03.328Z,99617.21
2018-09-15T00:30:34.457Z,99609.88
2018-09-15T00:31:05.587Z,99612.50
2018-09-15T00:31:36.749Z,99614.75
2018-09-15T00:32:07.866Z,99608.55
2018-09-15T00:32:39.008Z,99612.42
2018-09-15T00:33:10.160Z,99614.97
2018-09-15T00:33:41.320Z,99611.49
2018-09-15T00:34:12.450Z,99609.70
2018-09-15T00:34:43.555Z,99610.56
2018-09-15T00:35:14.680Z,99609.30
2018-09-15T00:35:45.836Z,99609.30
2018-09-15T00:36:16.942Z,99615.89
2018-09-15T00:36:48.062Z,99608.95
2018-09-15T00:37:19.185Z,99609.88
2018-09-15T00:37:50.298Z,99609.96
2018-09-15T00:38:21.466Z,99608.70
2018-09-15T00:38:52.856Z,99605.62
2018-09-15T00:39:23.958Z,99606.45
2018-09-15T00:39:55.129Z,99599.48
2018-09-15T00:40:26.267Z,99605.14
2018-09-15T00:40:57.400Z,99606.31
2018-09-15T00:41:28.511Z,99601.64
2018-09-15T00:41:59.646Z,99602.69
2018-09-15T00:42:30.750Z,99598.69
2018-09-15T00:43:01.865Z,99599.91
2018-09-15T00:43:33.040Z,99593.23
2018-09-15T00:44:04.159Z,99597.48
2018-09-15T00:44:35.291Z,99596.47
2018-09-15T00:45:06.400Z,99595.93
2018-09-15T00:45:37.502Z,99590.98
2018-09-15T00:46:08.598Z,99589.44
2018-09-15T00:46:39.722Z,99588.32
2018-09-15T00:47:10.864Z,99589.55
2018-09-15T00:47:41.991Z,99592.48
2018-09-15T00:48:13.101Z,99592.42
2018-09-15T00:48:44.277Z,99589.79
2018-09-15T00:49:15.419Z,99594.19
2018-09-15T00:49:46.567Z,99589.40
2018-09-15T00:50:17.662Z,99591.55
2018-09-15T00:50:48.806Z,99588.47
2018-09-15T00:51:19.920Z,99588.47
2018-09-15T00:51:51.064Z,99587.06
2018-09-15T00:52:22.175Z,99589.31
2018-09-15T00:52:53.284Z,99587.45
2018-09-15T00:53:24.453Z,99586.48
2018-09-15T00:53:55.604Z,99589.52
2018-09-15T00:54:26.724Z,99588.97
2018-09-15T00:54:57.845Z,99586.54
2018-09-15T00:55:28.967Z,99588.64
2018-09-15T00:56:00.077Z,99588.64
2018-09-15T00:56:31.192Z,99588.55
2018-09-15T00:57:02.318Z,99589.42
2018-09-15T00:57:33.435Z,99586.69
2018-09-15T00:58:04.542Z,99586.30
2018-09-15T00:58:35.702Z,99589.08
2018-09-15T00:59:06.812Z,99591.33
2018-09-15T00:59:37.932Z,99591.78
2018-09-15T01:00:09.048Z,99588.89
2018-09-15T01:00:40.160Z,99591.05
2018-09-15T01:01:11.263Z,99589.92
2018-09-15T01:01:42.373Z,99590.84
2018-09-15T01:02:13.516Z,99590.84
2018-09-15T01:02:44.634Z,99597.92
2018-09-15T01:03:15.806Z,99595.83
2018-09-15T01:03:46.922Z,99599.78
2018-09-15T01:04:18.024Z,99590.73
2018-09-15T01:04:49.126Z,99594.69
2018-09-15T01:05:20.271Z,99593.91
2018-09-15T01:05:51.384Z,99594.94
2018-09-15T01:06:22.492Z,99594.94
2018-09-15T01:06:53.582Z,99595.02
2018-09-15T01:07:24.696Z,99573.05
2018-09-15T01:07:55.855Z,99592.54
2018-09-15T01:08:26.976Z,99594.79
2018-09-15T01:08:58.077Z,99594.05
2018-09-15T01:09:29.175Z,99595.42
2018-09-15T01:10:00.302Z,99591.11
2018-09-15T01:10:31.439Z,99596.44
2018-09-15T01:11:02.571Z,99591.80
2018-09-15T01:11:33.697Z,99592.45
2018-09-15T01:12:04.887Z,99592.45
2018-09-15T01:12:36.011Z,99595.55
2018-09-15T01:13:07.127Z,99591.59
2018-09-15T01:13:38.246Z,99593.00
2018-09-15T01:14:09.454Z,99590.45
2018-09-15T01:14:40.551Z,99587.13
2018-09-15T01:15:11.674Z,99589.04
2018-09-15T01:15:42.791Z,99590.27
2018-09-15T01:16:13.902Z,99589.87
2018-09-15T01:16:45.031Z,99593.83
2018-09-15T01:17:16.189Z,99597.78
2018-09-15T01:17:47.296Z,99591.20
2018-09-15T01:18:18.406Z,99594.76
2018-09-15T01:18:49.520Z,99593.83
2018-09-15T01:19:20.666Z,99592.13
2018-09-15T01:19:51.807Z,99594.22
2018-09-15T01:20:22.913Z,99594.61
2018-09-15T01:20:54.021Z,99593.23
2018-09-15T01:21:25.147Z,99593.72
2018-09-15T01:21:56.278Z,99597.25
2018-09-15T01:22:27.433Z,99594.61
2018-09-15T01:22:58.562Z,99588.02
2018-09-15T01:23:29.679Z,99591.20
2018-09-15T01:24:00.797Z,99594.76
2018-09-15T01:24:31.913Z,99591.77
2018-09-15T01:25:03.052Z,99596.47
2018-09-15T01:25:34.161Z,99592.91
2018-09-15T01:26:05.330Z,99592.13
2018-09-15T01:26:36.420Z,99589.67
2018-09-15T01:27:07.590Z,99590.06
2018-09-15T01:27:38.800Z,99590.98
2018-09-15T01:28:09.901Z,99591.91
2018-09-15T01:28:41.036Z,99588.44
2018-09-15T01:29:12.156Z,99589.76
2018-09-15T01:29:43.250Z,99590.59
2018-09-15T01:30:14.354Z,99586.20
2018-09-15T01:30:45.473Z,99587.88
2018-09-15T01:31:16.580Z,99594.02
2018-09-15T01:31:47.694Z,99591.38
2018-09-15T01:32:18.863Z,99588.73
2018-09-15T01:32:49.986Z,99590.59
2018-09-15T01:33:21.164Z,99595.87
2018-09-15T01:33:52.298Z,99591.61
2018-09-15T01:34:23.407Z,99594.34
2018-09-15T01:34:54.504Z,99593.73
2018-09-15T01:35:25.640Z,99596.37
2018-09-15T01:35:56.747Z,99595.59
2018-09-15T01:36:27.882Z,99590.32
2018-09-15T01:36:59.022Z,99593.83
2018-09-15T01:37:30.179Z,99596.37
2018-09-15T01:38:01.315Z,99596.28
2018-09-15T01:38:32.415Z,99595.36
2018-09-15T01:39:03.541Z,99592.95
2018-09-15T01:39:34.657Z,99591.57
2018-09-15T01:40:05.780Z,99591.05
2018-09-15T01:40:36.907Z,99593.78
2018-09-15T01:41:08.023Z,99590.22
2018-09-15T01:41:39.137Z,99592.67
2018-09-15T01:42:10.234Z,99593.45
2018-09-15T01:42:41.353Z,99590.88
2018-09-15T01:43:12.544Z,99595.70
2018-09-15T01:43:43.659Z,99594.17
2018-09-15T01:44:14.788Z,99591.53
2018-09-15T01:44:45.900Z,99596.80
2018-09-15T01:45:16.985Z,99594.53
2018-09-15T01:45:48.092Z,99592.59
2018-09-15T01:46:19.203Z,99591.75
2018-09-15T01:46:50.308Z,99590.34
2018-09-15T01:47:21.415Z,99595.13
2018-09-15T01:47:52.563Z,99596.84
2018-09-15T01:48:23.742Z,99588.02
2018-09-15T01:48:54.872Z,99591.13
2018-09-15T01:49:26.023Z,99594.90
2018-09-15T01:49:57.137Z,99591.81
2018-09-15T01:50:28.251Z,99589.54
2018-09-15T01:50:59.373Z,99591.25
2018-09-15T01:51:30.520Z,99595.59
2018-09-15T01:52:01.627Z,99586.76
2018-09-15T01:52:32.753Z,99593.64
2018-09-15T01:53:03.864Z,99594.43
2018-09-15T01:53:34.963Z,99586.58
2018-09-15T01:54:06.097Z,99591.49
2018-09-15T01:54:37.212Z,99593.25
2018-09-15T01:55:08.367Z,99588.91
2018-09-15T01:55:39.507Z,99588.55
2018-09-15T01:56:10.610Z,99592.03
2018-09-15T01:56:41.710Z,99586.91
2018-09-15T01:57:12.802Z,99585.23
2018-09-15T01:57:43.919Z,99596.70
2018-09-15T01:58:15.047Z,99588.41
2018-09-15T01:58:46.193Z,99594.59
2018-09-15T01:59:17.304Z,99591.13
2018-09-15T01:59:48.411Z,99591.18
2018-09-15T02:00:19.566Z,99587.31
2018-09-15T02:00:50.657Z,99587.02
2018-09-15T02:01:21.802Z,99594.53
2018-09-15T02:01:52.920Z,99588.95
2018-09-15T02:02:24.051Z,99595.48
2018-09-15T02:02:55.165Z,99592.91
2018-09-15T02:03:26.270Z,99594.31
2018-09-15T02:03:57.402Z,99593.92
2018-09-15T02:04:28.506Z,99592.52
2018-09-15T02:04:59.638Z,99591.29
2018-09-15T02:05:30.770Z,99591.68
2018-09-15T02:06:01.886Z,99587.64
2018-09-15T02:06:33.020Z,99590.27
2018-09-15T02:07:04.211Z,99596.41
2018-09-15T02:07:35.342Z,99597.73
2018-09-15T02:08:06.449Z,99593.39
2018-09-15T02:08:37.563Z,99592.91
2018-09-15T02:09:08.686Z,99594.31
2018-09-15T02:09:39.838Z,99594.31
2018-09-15T02:10:10.964Z,99589.97
2018-09-15T02:10:42.082Z,99592.07
2018-09-15T02:11:13.177Z,99589.05
2018-09-15T02:11:44.285Z,99592.91
2018-09-15T02:12:15.447Z,99591.53
2018-09-15T02:12:46.614Z,99593.99
2018-09-15T02:13:17.721Z,99596.23
2018-09-15T02:13:48.836Z,99596.23
2018-09-15T02:14:20.009Z,99594.92
2018-09-15T02:14:51.107Z,99589.65
2018-09-15T02:15:22.254Z,99595.84
2018-09-15T02:15:53.359Z,99597.64
2018-09-15T02:16:24.472Z,99592.46
2018-09-15T02:16:55.595Z,99593.30
2018-09-15T02:17:26.703Z,99590.36
2018-09-15T02:17:57.852Z,99596.34
2018-09-15T02:18:28.954Z,99592.39
2018-09-15T02:19:00.056Z,99594.55
2018-09-15T02:19:31.160Z,99594.84
2018-09-15T02:20:02.283Z,99592.69
2018-09-15T02:20:33.410Z,99594.84
2018-09-15T02:21:04.551Z,99598.75
2018-09-15T02:21:35.660Z,99593.92
2018-09-15T02:22:06.775Z,99593.92
2018-09-15T02:22:37.967Z,99596.95
2018-09-15T02:23:09.109Z,99598.75
2018-09-15T02:23:40.209Z,99596.56
2018-09-15T02:24:11.314Z,99596.95
2018-09-15T02:24:42.424Z,99589.97
2018-09-15T02:25:13.562Z,99588.12
2018-09-15T02:25:44.657Z,99595.48
2018-09-15T02:26:15.774Z,99589.83
2018-09-15T02:26:46.884Z,99592.28
2018-09-15T02:27:17.987Z,99596.23
2018-09-15T02:27:49.124Z,99595.84
2018-09-15T02:28:20.311Z,99594.17
2018-09-15T02:28:51.514Z,99588.95
2018-09-15T02:29:22.603Z,99592.46
2018-09-15T02:29:53.714Z,99595.55
2018-09-15T02:30:24.839Z,99595.55
2018-09-15T02:30:55.977Z,99599.05
2018-09-15T02:31:27.115Z,99558.70
2018-09-15T02:31:58.232Z,99593.21
2018-09-15T02:32:29.336Z,99597.55
2018-09-15T02:33:00.456Z,99594.53
2018-09-15T02:33:31.626Z,99594.22
2018-09-15T02:34:02.723Z,99595.48
2018-09-15T02:34:33.826Z,99592.85
2018-09-15T02:35:04.946Z,99591.53
2018-09-15T02:35:36.081Z,99591.53
2018-09-15T02:36:07.195Z,99591.89
2018-09-15T02:36:38.306Z,99593.78
2018-09-15T02:37:09.416Z,99589.73
2018-09-15T02:37:40.519Z,99590.58
2018-09-15T02:38:11.640Z,99596.23
2018-09-15T02:38:42.804Z,99594.92
2018-09-15T02:39:13.907Z,99591.36
2018-09-15T02:39:45.025Z,99592.98
2018-09-15T02:40:16.150Z,99592.59
2018-09-15T02:40:47.251Z,99594.47
2018-09-15T02:41:18.392Z,99593.60
2018-09-15T02:41:49.494Z,99567.30
2018-09-15T02:42:20.641Z,99592.85
2018-09-15T02:42:51.774Z,99592.85
2018-09-15T02:43:22.891Z,99594.08
2018-09-15T02:43:54.029Z,99594.53
2018-09-15T02:44:25.144Z,99592.38
2018-09-15T02:44:56.275Z,99590.97
2018-09-15T02:45:27.425Z,99591.36
2018-09-15T02:45:58.594Z,99591.75
2018-09-15T02:46:29.729Z,99591.27
2018-09-15T02:47:00.891Z,99594.47
2018-09-15T02:47:31.993Z,99587.41
2018-09-15T02:48:03.104Z,99591.36
2018-09-15T02:48:34.215Z,99591.53
2018-09-15T02:49:05.364Z,99595.09
2018-09-15T02:49:36.500Z,99588.73
2018-09-15T02:50:07.616Z,99592.53
2018-09-15T02:50:38.720Z,99588.97
2018-09-15T02:51:09.840Z,99591.61
2018-09-15T02:51:40.999Z,99588.97
2018-09-15T02:52:12.149Z,99590.68
2018-09-15T02:52:43.256Z,99593.80
2018-09-15T02:53:14.394Z,99593.31
2018-09-15T02:53:45.501Z,99590.29
2018-09-15T02:54:16.639Z,99592.09
2018-09-15T02:54:47.769Z,99594.24
2018-09-15T02:55:18.892Z,99592.53
2018-09-15T02:55:50.023Z,99592.92
2018-09-15T02:56:21.118Z,99587.20
2018-09-15T02:56:52.255Z,99593.80
2018-09-15T02:57:23.431Z,99590.68
2018-09-15T02:57:54.566Z,99587.59
2018-09-15T02:58:25.676Z,99593.23
2018-09-15T02:58:56.802Z,99595.95
2018-09-15T02:59:27.900Z,99593.84
2018-09-15T02:59:59.041Z,99587.44
2018-09-15T03:00:30.160Z,99590.22
2018-09-15T03:01:01.271Z,99592.09
2018-09-15T03:01:32.385Z,99588.29
2018-09-15T03:02:03.514Z,99588.47
2018-09-15T03:02:34.676Z,99589.48
2018-09-15T03:03:05.790Z,99589.08
2018-09-15T03:03:36.895Z,99590.88
2018-09-15T03:04:08.001Z,99591.41
2018-09-15T03:04:39.128Z,99586.68
2018-09-15T03:05:10.287Z,99591.25
2018-09-15T03:05:41.401Z,99592.43
2018-09-15T03:06:12.503Z,99587.70
2018-09-15T03:06:43.639Z,99595.20
2018-09-15T03:07:14.743Z,99590.02
2018-09-15T03:07:45.875Z,99591.87
2018-09-15T03:08:16.998Z,99592.96
2018-09-15T03:08:48.100Z,99590.42
2018-09-15T03:09:19.202Z,99590.55
2018-09-15T03:09:50.345Z,99589.94
2018-09-15T03:10:21.442Z,99594.81
2018-09-15T03:10:52.619Z,99593.05
2018-09-15T03:11:23.724Z,99592.96
2018-09-15T03:11:54.826Z,99590.64
2018-09-15T03:12:25.942Z,99581.73
2018-09-15T03:12:57.068Z,99592.26
2018-09-15T03:13:28.172Z,99594.89
2018-09-15T03:13:59.295Z,99586.25
2018-09-15T03:14:30.422Z,99593.75
2018-09-15T03:15:01.556Z,99592.57
2018-09-15T03:15:32.668Z,99590.19
2018-09-15T03:16:03.826Z,99596.34
2018-09-15T03:16:34.941Z,99595.56
2018-09-15T03:17:06.070Z,99594.23
2018-09-15T03:17:37.183Z,99593.84
2018-09-15T03:18:08.352Z,99595.56
2018-09-15T03:18:39.476Z,99597.35
2018-09-15T03:19:10.603Z,99595.64
2018-09-15T03:19:41.781Z,99599.20
2018-09-15T03:20:12.902Z,99598.80
2018-09-15T03:20:44.007Z,99598.88
2018-09-15T03:21:15.152Z,99596.78
2018-09-15T03:21:46.305Z,99600.73
2018-09-15T03:22:17.419Z,99597.34
2018-09-15T03:22:48.540Z,99600.11
2018-09-15T03:23:19.678Z,99605.06
2018-09-15T03:23:50.846Z,99603.52
2018-09-15T03:24:21.960Z,99597.37
2018-09-15T03:24:53.062Z,99603.91
2018-09-15T03:25:24.172Z,99601.28
2018-09-15T03:25:55.300Z,99602.95
2018-09-15T03:26:26.414Z,99604.62
2018-09-15T03:26:57.555Z,99600.72
2018-09-15T03:27:28.705Z,99603.91
2018-09-15T03:27:59.840Z,99598.25
2018-09-15T03:28:30.940Z,99595.23
2018-09-15T03:29:02.082Z,99597.86
2018-09-15T03:29:33.208Z,99596.54
2018-09-15T03:30:04.310Z,99595.23
2018-09-15T03:30:35.406Z,99600.88
2018-09-15T03:31:06.527Z,99590.36
2018-09-15T03:31:37.694Z,99596.37
2018-09-15T03:32:08.804Z,99596.86
2018-09-15T03:32:39.902Z,99602.03
2018-09-15T03:33:11.015Z,99598.64
2018-09-15T03:33:42.107Z,99595.63
2018-09-15T03:34:13.233Z,99600.09
2018-09-15T03:34:44.365Z,99595.45
2018-09-15T03:35:15.491Z,99593.29
2018-09-15T03:35:46.628Z,99596.00
2018-09-15T03:36:17.744Z,99595.22
2018-09-15T03:36:48.888Z,99600.95
2018-09-15T03:37:19.988Z,99601.88
2018-09-15T03:37:51.093Z,99593.67
2018-09-15T03:38:22.208Z,99595.03
2018-09-15T03:38:53.340Z,99597.83
2018-09-15T03:39:24.447Z,99600.98
2018-09-15T03:39:55.584Z,99602.77
2018-09-15T03:40:26.699Z,99600.45
2018-09-15T03:40:57.809Z,99595.83
2018-09-15T03:41:29.067Z,99602.19
2018-09-15T03:42:00.175Z,99602.10
2018-09-15T03:42:31.310Z,99601.56
2018-09-15T03:43:02.424Z,99603.50
2018-09-15T03:43:33.524Z,99601.31
2018-09-15T03:44:04.647Z,99599.87
2018-09-15T03:44:35.745Z,99605.92
2018-09-15T03:45:06.855Z,99606.84
2018-09-15T03:45:37.982Z,99600.30
2018-09-15T03:46:09.123Z,99603.27
2018-09-15T03:46:40.265Z,99605.03
2018-09-15T03:47:11.379Z,99608.84
2018-09-15T03:47:42.488Z,99614.11
2018-09-15T03:48:13.607Z,99608.05
2018-09-15T03:48:44.726Z,99611.08
2018-09-15T03:49:15.839Z,99612.48
2018-09-15T03:49:47.011Z,99610.29
2018-09-15T03:50:18.143Z,99613.08
2018-09-15T03:50:49.269Z,99614.13
2018-09-15T03:51:20.376Z,99617.01
2018-09-15T03:51:51.484Z,99616.70
2018-09-15T03:52:22.582Z,99617.61
2018-09-15T03:52:53.696Z,99617.61
2018-09-15T03:53:24.841Z,99619.37
2018-09-15T03:53:55.977Z,99626.94
2018-09-15T03:54:27.104Z,99618.30
2018-09-15T03:54:58.215Z,99619.73
2018-09-15T03:55:29.317Z,99625.92
2018-09-15T03:56:00.460Z,99624.77
2018-09-15T03:56:31.599Z,99622.66
2018-09-15T03:57:02.730Z,99631.86
2018-09-15T03:57:33.824Z,99629.39
2018-09-15T03:58:04.934Z,99623.17
2018-09-15T03:58:36.051Z,99628.23
2018-09-15T03:59:07.155Z,99625.88
2018-09-15T03:59:38.260Z,99633.28
2018-09-15T04:00:09.391Z,99626.70
2018-09-15T04:00:40.532Z,99628.55
2018-09-15T04:01:11.654Z,99631.97
2018-09-15T04:01:42.808Z,99630.73
2018-09-15T04:02:13.945Z,99630.02
2018-09-15T04:02:45.064Z,99631.86
2018-09-15T04:03:16.188Z,99634.48
2018-09-15T04:03:47.302Z,99626.77
2018-09-15T04:04:18.408Z,99627.36
2018-09-15T04:04:49.512Z,99630.06
2018-09-15T04:05:20.634Z,99628.80
2018-09-15T04:05:51.744Z,99632.30
2018-09-15T04:06:22.887Z,99632.30
2018-09-15T04:06:54.055Z,99630.98
2018-09-15T04:07:25.166Z,99630.19
2018-09-15T04:07:56.277Z,99632.58
2018-09-15T04:08:27.388Z,99634.02
2018-09-15T04:08:58.566Z,99631.95
2018-09-15T04:09:29.677Z,99631.23
2018-09-15T04:10:00.815Z,99637.48
2018-09-15T04:10:31.937Z,99637.61
2018-09-15T04:11:03.034Z,99639.00
2018-09-15T04:11:34.198Z,99646.80
2018-09-15T04:12:05.337Z,99641.55
2018-09-15T04:12:36.449Z,99643.66
2018-09-15T04:13:07.569Z,99641.79
2018-09-15T04:13:38.761Z,99646.12
2018-09-15T04:14:09.895Z,99645.69
2018-09-15T04:14:41.000Z,99644.81
2018-09-15T04:15:12.127Z,99643.11
2018-09-15T04:15:43.267Z,99648.00
2018-09-15T04:16:14.400Z,99647.05
2018-09-15T04:16:45.601Z,99647.84
2018-09-15T04:17:16.713Z,99649.75
2018-09-15T04:17:47.828Z,99643.22
2018-09-15T04:18:18.947Z,99648.34
2018-09-15T04:18:50.101Z,99646.94
2018-09-15T04:19:21.223Z,99649.75
2018-09-15T04:19:52.322Z,99650.00
2018-09-15T04:20:23.450Z,99649.36
2018-09-15T04:20:54.584Z,99646.08
2018-09-15T04:21:25.718Z,99648.16
2018-09-15T04:21:56.876Z,99651.11
2018-09-15T04:22:27.990Z,99654.00
2018-09-15T04:22:59.099Z,99653.44
2018-09-15T04:23:30.225Z,99653.29
2018-09-15T04:24:01.381Z,99649.63
2018-09-15T04:24:32.505Z,99653.42
2018-09-15T04:25:03.610Z,99655.78
2018-09-15T04:25:34.735Z,99647.19
2018-09-15T04:26:05.840Z,99651.06
2018-09-15T04:26:36.945Z,99651.48
2018-09-15T04:27:08.046Z,99646.48
2018-09-15T04:27:39.199Z,99644.28
2018-09-15T04:28:10.323Z,99650.36
2018-09-15T04:28:41.455Z,99648.65
2018-09-15T04:29:12.600Z,99655.20
2018-09-15T04:29:43.704Z,99657.22
2018-09-15T04:30:14.835Z,99650.58
2018-09-15T04:30:45.935Z,99650.08
2018-09-15T04:31:17.044Z,99653.28
2018-09-15T04:31:48.146Z,99653.99
2018-09-15T04:32:19.266Z,99654.22
2018-09-15T04:32:50.392Z,99651.90
2018-09-15T04:33:21.504Z,99651.24
2018-09-15T04:33:52.648Z,99653.27
2018-09-15T04:34:23.769Z,99647.80
2018-09-15T04:34:54.926Z,99646.02
2018-09-15T04:35:26.058Z,99654.67
2018-09-15T04:35:57.172Z,99656.67
2018-09-15T04:36:28.280Z,99653.66
2018-09-15T04:36:59.389Z,99656.30
2018-09-15T04:37:30.495Z,99655.36
2018-09-15T04:38:01.670Z,99654.11
2018-09-15T04:38:32.781Z,99662.33
2018-09-15T04:39:03.891Z,99660.08
2018-09-15T04:39:35.024Z,99659.88
2018-09-15T04:40:06.146Z,99656.47
2018-09-15T04:40:37.316Z,99659.58
2018-09-15T04:41:08.438Z,99658.91
2018-09-15T04:41:39.583Z,99660.23
2018-09-15T04:42:10.686Z,99664.78
2018-09-15T04:42:41.807Z,99659.83
2018-09-15T04:43:12.936Z,99664.66
2018-09-15T04:43:44.052Z,99663.88
2018-09-15T04:44:15.170Z,99663.39
2018-09-15T04:44:46.315Z,99662.45
2018-09-15T04:45:17.447Z,99663.94
2018-09-15T04:45:48.587Z,99663.16
2018-09-15T04:46:19.704Z,99656.14
2018-09-15T04:46:50.818Z,99663.69
2018-09-15T04:47:21.931Z,99666.92
2018-09-15T04:47:53.039Z,99664.34
2018-09-15T04:48:24.190Z,99669.65
2018-09-15T04:48:55.345Z,99667.38
2018-09-15T04:49:26.489Z,99665.77
2018-09-15T04:49:57.631Z,99668.39
2018-09-15T04:50:28.763Z,99669.71
2018-09-15T04:50:59.955Z,99671.69
2018-09-15T04:51:31.063Z,99672.70
2018-09-15T04:52:02.232Z,99673.58
2018-09-15T04:52:33.443Z,99676.23
2018-09-15T04:53:04.495Z,99677.55
2018-09-15T04:53:35.607Z,99673.84
2018-09-15T04:54:06.718Z,99678.09
2018-09-15T04:54:37.829Z,99671.55
2018-09-15T04:55:08.949Z,99669.90
2018-09-15T04:55:40.061Z,99676.15
2018-09-15T04:56:11.207Z,99674.15
2018-09-15T04:56:42.328Z,99672.03
2018-09-15T04:57:13.511Z,99670.33
2018-09-15T04:57:44.664Z,99673.20
2018-09-15T04:58:15.820Z,99681.70
2018-09-15T04:58:46.963Z,99683.17
2018-09-15T04:59:18.104Z,99677.46
2018-09-15T04:59:49.222Z,99679.32
2018-09-15T05:00:20.349Z,99678.75
2018-09-15T05:00:51.475Z,99670.80
2018-09-15T05:01:22.586Z,99672.28
2018-09-15T05:01:53.728Z,99673.41
2018-09-15T05:02:24.906Z,99677.34
2018-09-15T05:02:56.025Z,99674.05
2018-09-15T05:03:27.173Z,99673.09
2018-09-15T05:03:58.296Z,99675.70
2018-09-15T05:04:29.422Z,99673.80
2018-09-15T05:05:00.532Z,99669.33
2018-09-15T05:05:31.648Z,99672.93
2018-09-15T05:06:02.782Z,99674.37
2018-09-15T05:06:33.989Z,99671.98
2018-09-15T05:07:05.096Z,99671.98
2018-09-15T05:07:36.294Z,99667.33
2018-09-15T05:08:07.403Z,99669.48
2018-09-15T05:08:38.509Z,99667.83
2018-09-15T05:09:09.632Z,99670.55
2018-09-15T05:09:40.794Z,99670.41
2018-09-15T05:10:11.900Z,99671.93
2018-09-15T05:10:43.013Z,99671.70
2018-09-15T05:11:14.145Z,99675.08
2018-09-15T05:11:45.264Z,99678.36
2018-09-15T05:12:16.463Z,99677.72
2018-09-15T05:12:47.639Z,99677.61
2018-09-15T05:13:18.778Z,99672.83
2018-09-15T05:13:49.900Z,99676.42
2018-09-15T05:14:21.014Z,99674.15
2018-09-15T05:14:52.143Z,99676.05
2018-09-15T05:15:23.303Z,99679.83
2018-09-15T05:15:54.441Z,99672.12
2018-09-15T05:16:25.574Z,99675.55
2018-09-15T05:16:56.700Z,99676.66
2018-09-15T05:17:27.853Z,99675.72
2018-09-15T05:17:58.962Z,99677.61
2018-09-15T05:18:30.150Z,99676.28
2018-09-15T05:19:01.272Z,99680.23
2018-09-15T05:19:32.387Z,99674.63
2018-09-15T05:20:03.559Z,99675.09
2018-09-15T05:20:34.667Z,99679.16
2018-09-15T05:21:05.792Z,99684.45
2018-09-15T05:21:36.932Z,99684.91
2018-09-15T05:22:08.068Z,99655.81
2018-09-15T05:22:39.196Z,99682.27
2018-09-15T05:23:10.300Z,99687.11
2018-09-15T05:23:41.437Z,99683.24
2018-09-15T05:24:12.581Z,99679.45
2018-09-15T05:24:43.673Z,99679.19
2018-09-15T05:25:14.798Z,99675.85
2018-09-15T05:25:45.934Z,99681.27
2018-09-15T05:26:17.053Z,99657.65
2018-09-15T05:26:48.203Z,99672.73
2018-09-15T05:27:19.355Z,99676.91
2018-09-15T05:27:50.549Z,99677.55
2018-09-15T05:28:21.662Z,99677.37
2018-09-15T05:28:52.825Z,99674.15
2018-09-15T05:29:23.935Z,99676.34
2018-09-15T05:29:55.059Z,99673.50
2018-09-15T05:30:26.172Z,99677.17
2018-09-15T05:30:57.289Z,99676.86
2018-09-15T05:31:28.442Z,99671.73
2018-09-15T05:31:59.542Z,99675.98
2018-09-15T05:32:30.681Z,99671.55
2018-09-15T05:33:01.818Z,99673.91
2018-09-15T05:33:32.936Z,99670.01
2018-09-15T05:34:04.088Z,99673.06
2018-09-15T05:34:35.200Z,99670.80
2018-09-15T05:35:07.140Z,99673.84
2018-09-15T05:35:38.248Z,99671.69
2018-09-15T05:36:09.370Z,99674.44
2018-09-15T05:36:40.519Z,99670.11
2018-09-15T05:37:11.652Z,99666.48
2018-09-15T05:37:42.748Z,99670.90
2018-09-15T05:38:13.880Z,99672.49
2018-09-15T05:38:45.012Z,99671.63
2018-09-15T05:39:16.188Z,99674.41
2018-09-15T05:39:47.330Z,99676.88
2018-09-15T05:40:18.473Z,99673.17
2018-09-15T05:40:49.608Z,99672.70
2018-09-15T05:41:20.755Z,99677.66
2018-09-15T05:41:51.872Z,99672.67
2018-09-15T05:42:22.979Z,99674.67
2018-09-15T05:42:54.093Z,99673.06
2018-09-15T05:43:26.126Z,99672.78
2018-09-15T05:43:57.227Z,99668.97
2018-09-15T05:44:28.368Z,99672.66
2018-09-15T05:44:59.492Z,99667.77
2018-09-15T05:45:30.614Z,99670.77
2018-09-15T05:46:01.759Z,99675.85
2018-09-15T05:46:32.878Z,99674.50
2018-09-15T05:47:04.003Z,99675.41
2018-09-15T05:47:35.150Z,99667.53
2018-09-15T05:48:06.324Z,99675.22
2018-09-15T05:48:37.511Z,99675.87
2018-09-15T05:49:08.618Z,99649.87
2018-09-15T05:49:39.789Z,99673.56
2018-09-15T05:50:10.940Z,99672.50
2018-09-15T05:50:42.051Z,99670.11
2018-09-15T05:51:13.194Z,99675.16
2018-09-15T05:51:44.322Z,99672.50
2018-09-15T05:52:15.438Z,99679.02
2018-09-15T05:52:46.530Z,99676.02
2018-09-15T05:53:17.647Z,99673.25
2018-09-15T05:53:48.781Z,99676.81
2018-09-15T05:54:19.890Z,99671.28
2018-09-15T05:54:51.065Z,99671.20
2018-09-15T05:55:22.191Z,99675.22
2018-09-15T05:55:53.334Z,99672.94
2018-09-15T05:56:24.461Z,99679.27
2018-09-15T05:56:55.591Z,99672.20
2018-09-15T05:57:26.711Z,99675.84
2018-09-15T05:57:57.857Z,99681.37
2018-09-15T05:58:28.989Z,99674.23
2018-09-15T05:59:00.140Z,99676.70
2018-09-15T05:59:31.260Z,99670.58
2018-09-15T06:00:02.399Z,99672.05
2018-09-15T06:00:33.559Z,99674.56
2018-09-15T06:01:04.696Z,99675.37
2018-09-15T06:01:35.899Z,99671.73
2018-09-15T06:02:06.997Z,99675.39
2018-09-15T06:02:38.139Z,99674.13
2018-09-15T06:03:09.252Z,99677.77
2018-09-15T06:03:40.367Z,99670.70
2018-09-15T06:04:11.504Z,99676.64
2018-09-15T06:04:42.636Z,99673.41
2018-09-15T06:05:13.796Z,99669.56
2018-09-15T06:05:44.923Z,99673.37